createdAt,value
2019-03-25T00:02:28.764Z,6.60
2019-03-25T00:04:57.072Z,6.10
2019-03-25T00:07:25.402Z,5.70
2019-03-25T00:09:53.660Z,5.83
2019-03-25T00:12:21.927Z,5.87
2019-03-25T00:14:50.203Z,5.60
2019-03-25T00:17:18.469Z,4.87
2019-03-25T00:19:46.796Z,5.00
2019-03-25T00:22:15.065Z,5.40
2019-03-25T00:24:43.347Z,5.90
2019-03-25T00:27:11.605Z,7.90
2019-03-25T00:29:40.723Z,7.13
2019-03-25T00:32:09.177Z,7.60
2019-03-25T00:34:37.483Z,7.23
2019-03-25T00:37:07.522Z,8.17
2019-03-25T00:39:35.805Z,7.50
2019-03-25T00:42:04.117Z,8.90
2019-03-25T00:44:33.247Z,8.03
2019-03-25T00:47:01.535Z,8.53
2019-03-25T00:49:29.777Z,7.90
2019-03-25T00:51:58.039Z,8.03
2019-03-25T00:54:26.335Z,7.00
2019-03-25T00:56:54.597Z,6.50
2019-03-25T00:59:22.902Z,6.10
2019-03-25T01:01:51.129Z,5.27
2019-03-25T01:04:19.425Z,5.30
2019-03-25T01:06:47.702Z,5.63
2019-03-25T01:09:15.972Z,3.90
2019-03-25T01:11:49.024Z,4.40
2019-03-25T01:14:14.248Z,4.80
2019-03-25T01:16:42.581Z,4.80
2019-03-25T01:19:10.847Z,4.67
2019-03-25T01:21:39.103Z,5.10
2019-03-25T01:24:07.649Z,4.73
2019-03-25T01:26:35.928Z,7.30
2019-03-25T01:29:04.225Z,5.27
2019-03-25T01:31:32.475Z,4.90
2019-03-25T01:34:00.820Z,5.20
2019-03-25T01:36:29.136Z,5.63
2019-03-25T01:38:57.392Z,5.50
2019-03-25T01:41:25.666Z,5.13
2019-03-25T01:43:54.026Z,5.80
2019-03-25T01:46:22.321Z,5.30
2019-03-25T01:48:50.591Z,5.10
2019-03-25T01:51:18.928Z,4.77
2019-03-25T01:53:47.201Z,4.00
2019-03-25T01:56:15.447Z,4.77
2019-03-25T01:58:43.725Z,4.10
2019-03-25T02:01:12.466Z,5.40
2019-03-25T02:03:40.716Z,4.23
2019-03-25T02:06:08.996Z,3.93
2019-03-25T02:08:37.247Z,4.27
2019-03-25T02:11:05.581Z,3.93
2019-03-25T02:13:33.847Z,4.47
2019-03-25T02:16:02.132Z,5.40
2019-03-25T02:18:30.426Z,5.20
2019-03-25T02:20:58.766Z,4.60
2019-03-25T02:23:27.016Z,4.47
2019-03-25T02:25:55.310Z,4.80
2019-03-25T02:28:23.604Z,5.37
2019-03-25T02:30:51.869Z,5.80
2019-03-25T02:33:21.681Z,5.00
2019-03-25T02:35:49.960Z,5.27
2019-03-25T02:38:18.329Z,4.90
2019-03-25T02:40:46.613Z,4.90
2019-03-25T02:43:15.970Z,4.70
2019-03-25T02:45:44.268Z,5.00
2019-03-25T02:48:12.519Z,5.07
2019-03-25T02:50:40.808Z,4.90
2019-03-25T02:53:09.139Z,5.17
2019-03-25T02:55:42.134Z,5.00
2019-03-25T02:58:07.475Z,4.93
2019-03-25T03:00:37.179Z,4.90
2019-03-25T03:03:06.594Z,4.40
2019-03-25T03:05:35.490Z,6.00
2019-03-25T03:08:03.912Z,5.10
2019-03-25T03:10:32.175Z,4.60
2019-03-25T03:13:00.468Z,4.80
2019-03-25T03:15:28.743Z,5.33
2019-03-25T03:17:57.051Z,5.20
2019-03-25T03:20:25.320Z,5.70
2019-03-25T03:22:53.575Z,5.00
2019-03-25T03:25:22.071Z,5.20
2019-03-25T03:27:51.129Z,5.73
2019-03-25T03:30:19.378Z,5.13
2019-03-25T03:32:47.654Z,5.30
2019-03-25T03:35:15.998Z,5.27
2019-03-25T03:37:44.251Z,6.43
2019-03-25T03:40:12.513Z,5.87
2019-03-25T03:42:40.872Z,5.73
2019-03-25T03:45:09.323Z,5.90
2019-03-25T03:47:37.588Z,6.20
2019-03-25T03:50:13.895Z,6.20
2019-03-25T03:52:41.108Z,5.50
2019-03-25T03:55:09.438Z,6.43
2019-03-25T03:57:37.772Z,5.60
2019-03-25T04:00:07.344Z,6.90
2019-03-25T04:02:35.611Z,5.23
2019-03-25T04:05:04.211Z,5.63
2019-03-25T04:07:32.461Z,5.30
2019-03-25T04:10:00.753Z,5.07
2019-03-25T04:12:29.095Z,5.90
2019-03-25T04:14:57.437Z,6.30
2019-03-25T04:17:27.203Z,6.93
2019-03-25T04:19:55.439Z,4.90
2019-03-25T04:22:23.716Z,6.40
2019-03-25T04:24:52.018Z,6.37
2019-03-25T04:27:24.332Z,5.03
2019-03-25T04:29:51.944Z,6.40
2019-03-25T04:32:20.201Z,5.93
2019-03-25T04:34:48.473Z,6.10
2019-03-25T04:37:16.740Z,6.77
2019-03-25T04:39:45.027Z,6.20
2019-03-25T04:42:13.310Z,5.83
2019-03-25T04:44:41.581Z,5.80
2019-03-25T04:47:09.829Z,6.37
2019-03-25T04:49:38.150Z,5.80
2019-03-25T04:52:08.000Z,6.10
2019-03-25T04:54:36.296Z,5.80
2019-03-25T04:57:04.533Z,5.17
2019-03-25T04:59:32.797Z,5.10
2019-03-25T05:02:01.086Z,5.60
2019-03-25T05:04:29.416Z,6.53
2019-03-25T05:06:57.685Z,6.30
2019-03-25T05:09:25.947Z,6.20
2019-03-25T05:11:54.201Z,7.50
2019-03-25T05:14:22.466Z,5.47
2019-03-25T05:16:50.725Z,5.43
2019-03-25T05:19:18.980Z,5.33
2019-03-25T05:21:47.317Z,5.13
2019-03-25T05:24:16.421Z,5.37
2019-03-25T05:26:51.026Z,5.20
2019-03-25T05:29:14.703Z,6.83
2019-03-25T05:31:43.019Z,5.97
2019-03-25T05:34:11.366Z,5.93
2019-03-25T05:36:39.591Z,5.60
2019-03-25T05:39:08.899Z,5.90
2019-03-25T05:41:37.222Z,5.90
2019-03-25T05:44:05.501Z,6.73
2019-03-25T05:46:34.309Z,6.97
2019-03-25T05:49:02.659Z,7.00
2019-03-25T05:51:30.879Z,7.00
2019-03-25T05:53:59.163Z,6.27
2019-03-25T05:56:27.445Z,6.40
2019-03-25T05:58:55.697Z,7.60
2019-03-25T06:01:24.342Z,6.33
2019-03-25T06:03:52.720Z,6.50
2019-03-25T06:06:20.998Z,6.57
2019-03-25T06:08:49.244Z,6.50
2019-03-25T06:11:17.521Z,6.87
2019-03-25T06:13:45.867Z,7.10
2019-03-25T06:16:14.147Z,6.07
2019-03-25T06:18:42.411Z,6.20
2019-03-25T06:21:10.698Z,6.20
2019-03-25T06:23:41.630Z,6.97
2019-03-25T06:26:09.909Z,6.50
2019-03-25T06:28:38.219Z,6.07
2019-03-25T06:31:06.799Z,7.00
2019-03-25T06:33:35.154Z,7.10
2019-03-25T06:36:03.378Z,7.17
2019-03-25T06:38:31.634Z,7.17
2019-03-25T06:41:02.165Z,7.80
2019-03-25T06:43:30.423Z,6.90
2019-03-25T06:45:59.568Z,7.37
2019-03-25T06:48:27.834Z,6.50
2019-03-25T06:50:56.110Z,6.20
2019-03-25T06:53:24.399Z,7.20
2019-03-25T06:55:52.668Z,9.10
2019-03-25T06:58:20.990Z,7.00
2019-03-25T07:00:49.250Z,7.30
2019-03-25T07:03:17.541Z,8.80
2019-03-25T07:05:46.652Z,7.40
2019-03-25T07:08:14.957Z,8.53
2019-03-25T07:10:43.292Z,7.70
2019-03-25T07:13:11.697Z,6.93
2019-03-25T07:15:39.961Z,7.50
2019-03-25T07:18:08.233Z,7.07
2019-03-25T07:20:36.613Z,7.90
2019-03-25T07:23:04.968Z,7.50
2019-03-25T07:25:33.257Z,7.00
2019-03-25T07:28:01.506Z,7.60
2019-03-25T07:30:29.785Z,7.37
2019-03-25T07:32:58.063Z,6.97
2019-03-25T07:35:27.054Z,8.27
2019-03-25T07:37:55.332Z,7.33
2019-03-25T07:40:23.626Z,8.10
2019-03-25T07:42:51.915Z,8.00
2019-03-25T07:45:20.170Z,7.00
2019-03-25T07:47:48.510Z,7.80
2019-03-25T07:50:16.863Z,8.47
2019-03-25T07:52:46.872Z,7.70
2019-03-25T07:55:15.131Z,7.80
2019-03-25T07:57:48.351Z,7.13
2019-03-25T08:00:16.653Z,8.10
2019-03-25T08:02:45.181Z,7.50
2019-03-25T08:05:13.509Z,7.70
2019-03-25T08:07:41.852Z,8.43
2019-03-25T08:10:10.617Z,9.20
2019-03-25T08:12:38.849Z,8.33
2019-03-25T08:15:07.893Z,7.47
2019-03-25T08:17:36.136Z,7.70
2019-03-25T08:20:06.586Z,8.37
2019-03-25T08:22:34.927Z,6.57
2019-03-25T08:25:03.754Z,6.87
2019-03-25T08:27:32.018Z,6.30
2019-03-25T08:30:00.381Z,7.10
2019-03-25T08:32:28.590Z,7.30
2019-03-25T08:34:56.853Z,7.10
2019-03-25T08:37:25.129Z,6.07
2019-03-25T08:39:53.384Z,7.50
2019-03-25T08:42:21.687Z,6.30
2019-03-25T08:44:49.975Z,6.30
2019-03-25T08:47:18.314Z,7.20
2019-03-25T08:49:46.654Z,5.37
2019-03-25T08:52:14.916Z,5.80
2019-03-25T08:54:43.185Z,5.50
2019-03-25T08:57:11.461Z,5.87
2019-03-25T08:59:39.758Z,5.40
2019-03-25T09:02:08.032Z,4.80
2019-03-25T09:04:36.303Z,5.10
2019-03-25T09:07:04.555Z,5.17
2019-03-25T09:09:32.835Z,5.37
2019-03-25T09:12:01.104Z,5.50
2019-03-25T09:14:29.353Z,5.97
2019-03-25T09:17:00.466Z,5.17
2019-03-25T09:19:27.694Z,6.07
2019-03-25T09:21:56.026Z,6.00
2019-03-25T09:24:24.295Z,5.17
2019-03-25T09:26:52.573Z,5.57
2019-03-25T09:29:20.897Z,4.90
2019-03-25T09:31:49.154Z,5.90
2019-03-25T09:34:17.442Z,7.13
2019-03-25T09:36:45.726Z,5.57
2019-03-25T09:39:13.988Z,5.60
2019-03-25T09:41:42.274Z,5.40
2019-03-25T09:44:11.483Z,5.80
2019-03-25T09:46:39.749Z,5.27
2019-03-25T09:49:08.014Z,5.03
2019-03-25T09:51:36.289Z,5.57
2019-03-25T09:54:04.667Z,5.00
2019-03-25T09:56:32.943Z,4.87
2019-03-25T09:59:01.211Z,6.27
2019-03-25T10:01:29.488Z,3.10
2019-03-25T10:03:57.745Z,3.00
2019-03-25T10:06:26.031Z,3.03
2019-03-25T10:08:54.369Z,2.90
2019-03-25T10:11:22.692Z,2.97
2019-03-25T10:13:50.983Z,3.10
2019-03-25T10:16:19.245Z,3.03
2019-03-25T10:18:47.524Z,2.80
2019-03-25T10:21:15.811Z,2.70
2019-03-25T10:23:44.154Z,2.60
2019-03-25T10:26:12.442Z,3.23
2019-03-25T10:28:48.423Z,2.57
2019-03-25T10:31:10.796Z,3.10
2019-03-25T10:33:39.126Z,3.17
2019-03-25T10:36:07.715Z,2.90
2019-03-25T10:38:35.979Z,3.10
2019-03-25T10:41:04.259Z,3.70
2019-03-25T10:43:32.547Z,3.17
2019-03-25T10:46:00.803Z,2.70
2019-03-25T10:48:29.165Z,2.33
2019-03-25T10:50:57.417Z,3.10
2019-03-25T10:53:25.675Z,4.20
2019-03-25T10:55:53.939Z,3.20
2019-03-25T10:58:22.221Z,2.57
2019-03-25T11:00:50.545Z,2.60
2019-03-25T11:03:19.115Z,2.40
2019-03-25T11:05:47.559Z,2.13
2019-03-25T11:08:15.827Z,2.30
2019-03-25T11:10:44.152Z,2.40
2019-03-25T11:13:12.470Z,2.20
2019-03-25T11:15:40.755Z,2.77
2019-03-25T11:18:09.038Z,2.70
2019-03-25T11:20:37.323Z,1.87
2019-03-25T11:23:05.648Z,2.20
2019-03-25T11:25:33.900Z,1.90
2019-03-25T11:28:02.192Z,1.90
2019-03-25T11:30:49.432Z,2.40
2019-03-25T11:33:17.743Z,2.07
2019-03-25T11:35:46.089Z,3.70
2019-03-25T11:38:14.352Z,3.70
2019-03-25T11:40:42.722Z,2.30
2019-03-25T11:43:10.980Z,2.20
2019-03-25T11:45:39.242Z,1.80
2019-03-25T11:48:07.523Z,2.77
2019-03-25T11:50:35.767Z,2.70
2019-03-25T11:53:04.169Z,1.73
2019-03-25T11:55:32.480Z,1.87
2019-03-25T11:58:00.774Z,2.23
2019-03-25T12:00:29.042Z,2.00
2019-03-25T12:02:57.291Z,1.80
2019-03-25T12:05:25.583Z,2.30
2019-03-25T12:07:53.864Z,2.60
2019-03-25T12:10:22.120Z,2.13
2019-03-25T12:12:50.413Z,1.60
2019-03-25T12:15:18.700Z,1.70
2019-03-25T12:17:46.944Z,1.80
2019-03-25T12:20:15.260Z,1.50
2019-03-25T12:22:43.477Z,2.10
2019-03-25T12:25:11.931Z,1.63
2019-03-25T12:27:40.648Z,2.33
2019-03-25T12:30:10.277Z,1.97
2019-03-25T12:32:38.553Z,2.03
2019-03-25T12:35:08.266Z,1.90
2019-03-25T12:37:36.592Z,2.20
2019-03-25T12:40:07.852Z,2.10
2019-03-25T12:42:36.397Z,2.10
2019-03-25T12:45:06.698Z,2.70
2019-03-25T12:47:34.957Z,2.50
2019-03-25T12:50:04.139Z,2.93
2019-03-25T12:52:32.484Z,2.07
2019-03-25T12:55:02.412Z,2.43
2019-03-25T12:57:30.717Z,3.20
2019-03-25T12:59:59.086Z,3.60
2019-03-25T13:02:27.339Z,3.80
2019-03-25T13:04:55.606Z,3.73
2019-03-25T13:07:23.886Z,2.80
2019-03-25T13:09:52.156Z,2.80
2019-03-25T13:12:20.487Z,2.73
2019-03-25T13:14:48.749Z,2.13
2019-03-25T13:17:17.011Z,1.70
2019-03-25T13:19:45.291Z,2.10
2019-03-25T13:22:13.679Z,1.63
2019-03-25T13:24:42.039Z,2.00
2019-03-25T13:27:10.293Z,1.60
2019-03-25T13:29:38.571Z,2.40
2019-03-25T13:32:06.866Z,1.90
2019-03-25T13:34:35.140Z,2.10
2019-03-25T13:37:03.412Z,2.10
2019-03-25T13:39:31.671Z,1.97
2019-03-25T13:42:00.037Z,1.93
2019-03-25T13:44:28.307Z,2.40
2019-03-25T13:46:56.575Z,1.80
2019-03-25T13:49:24.839Z,1.20
2019-03-25T13:51:53.122Z,0.87
2019-03-25T13:54:21.445Z,1.00
2019-03-25T13:56:49.729Z,1.10
2019-03-25T13:59:18.013Z,0.83
2019-03-25T14:01:46.351Z,0.70
2019-03-25T14:04:14.643Z,0.90
2019-03-25T14:06:42.919Z,0.73
2019-03-25T14:09:11.257Z,1.07
2019-03-25T14:11:39.539Z,1.07
2019-03-25T14:14:07.880Z,1.23
2019-03-25T14:16:36.175Z,2.17
2019-03-25T14:19:06.232Z,6.90
2019-03-25T14:21:34.509Z,2.80
2019-03-25T14:24:02.870Z,2.03
2019-03-25T14:26:31.123Z,1.40
2019-03-25T14:28:59.403Z,1.23
2019-03-25T14:31:27.712Z,1.50
2019-03-25T14:33:55.934Z,1.90
2019-03-25T14:36:24.190Z,2.33
2019-03-25T14:38:52.467Z,3.17
2019-03-25T14:41:20.743Z,1.57
2019-03-25T14:43:49.012Z,1.40
2019-03-25T14:46:17.290Z,1.50
2019-03-25T14:48:45.584Z,1.60
2019-03-25T14:51:13.875Z,2.00
2019-03-25T14:53:45.163Z,1.77
2019-03-25T14:56:12.155Z,1.70
2019-03-25T14:58:40.433Z,1.30
2019-03-25T15:01:08.725Z,1.10
2019-03-25T15:03:37.164Z,1.00
2019-03-25T15:06:05.496Z,1.00
2019-03-25T15:08:33.783Z,1.20
2019-03-25T15:11:02.115Z,1.00
2019-03-25T15:13:30.393Z,1.40
2019-03-25T15:15:58.655Z,1.13
2019-03-25T15:18:26.954Z,1.20
2019-03-25T15:20:55.301Z,1.03
2019-03-25T15:23:23.554Z,1.37
2019-03-25T15:25:51.822Z,1.23
2019-03-25T15:28:20.098Z,1.73
2019-03-25T15:30:48.366Z,1.80
2019-03-25T15:33:23.738Z,1.50
2019-03-25T15:35:51.997Z,1.37
2019-03-25T15:38:20.297Z,2.00
2019-03-25T15:40:48.567Z,1.53
2019-03-25T15:43:16.864Z,2.20
2019-03-25T15:45:45.139Z,2.00
2019-03-25T15:48:13.410Z,1.80
2019-03-25T15:50:41.681Z,2.10
2019-03-25T15:53:09.964Z,1.70
2019-03-25T15:55:38.246Z,1.57
2019-03-25T15:58:06.593Z,2.47
2019-03-25T16:00:34.932Z,1.50
2019-03-25T16:03:03.185Z,1.93
2019-03-25T16:05:31.460Z,1.60
2019-03-25T16:07:59.726Z,2.00
2019-03-25T16:10:28.000Z,1.80
2019-03-25T16:12:56.381Z,1.80
2019-03-25T16:15:43.133Z,1.83
2019-03-25T16:18:32.672Z,2.10
2019-03-25T16:21:00.953Z,1.80
2019-03-25T16:23:29.202Z,1.70
2019-03-25T16:25:57.475Z,1.23
2019-03-25T16:28:25.745Z,1.37
2019-03-25T16:30:58.574Z,1.17
2019-03-25T16:33:24.082Z,1.63
2019-03-25T16:35:52.352Z,1.33
2019-03-25T16:38:20.904Z,2.40
2019-03-25T16:40:49.122Z,1.63
2019-03-25T16:43:17.451Z,1.53
2019-03-25T16:45:45.747Z,2.00
2019-03-25T16:48:14.041Z,2.10
2019-03-25T16:50:42.308Z,1.43
2019-03-25T16:53:10.581Z,1.67
2019-03-25T16:55:38.920Z,1.80
2019-03-25T16:58:07.208Z,1.50
2019-03-25T17:00:35.470Z,2.13
2019-03-25T17:03:03.747Z,2.10
2019-03-25T17:05:32.013Z,2.23
2019-03-25T17:08:00.290Z,2.43
2019-03-25T17:10:28.649Z,2.40
2019-03-25T17:12:56.910Z,1.83
2019-03-25T17:15:25.193Z,2.00
2019-03-25T17:17:53.484Z,1.37
2019-03-25T17:20:21.747Z,1.70
2019-03-25T17:22:50.020Z,1.60
2019-03-25T17:25:18.408Z,2.00
2019-03-25T17:27:46.658Z,2.07
2019-03-25T17:30:16.271Z,2.37
2019-03-25T17:32:44.560Z,2.10
2019-03-25T17:35:12.903Z,2.00
2019-03-25T17:37:41.180Z,2.07
2019-03-25T17:40:09.733Z,2.50
2019-03-25T17:42:37.988Z,2.70
2019-03-25T17:45:07.525Z,2.70
2019-03-25T17:47:35.816Z,2.50
2019-03-25T17:50:06.210Z,3.03
2019-03-25T17:52:34.565Z,2.80
2019-03-25T17:55:04.057Z,3.20
2019-03-25T17:57:32.326Z,3.83
2019-03-25T18:00:00.698Z,3.50
2019-03-25T18:02:28.986Z,3.90
2019-03-25T18:04:57.255Z,3.77
2019-03-25T18:07:25.609Z,4.10
2019-03-25T18:09:54.023Z,4.40
2019-03-25T18:12:22.250Z,4.53
2019-03-25T18:14:50.548Z,3.23
2019-03-25T18:17:18.829Z,3.80
2019-03-25T18:19:47.139Z,3.60
2019-03-25T18:22:15.391Z,3.50
2019-03-25T18:24:43.697Z,3.70
2019-03-25T18:27:11.915Z,4.00
2019-03-25T18:29:40.189Z,4.10
2019-03-25T18:32:08.525Z,4.00
2019-03-25T18:34:36.802Z,3.67
2019-03-25T18:37:05.156Z,4.87
2019-03-25T18:39:33.439Z,4.10
2019-03-25T18:42:03.837Z,4.40
2019-03-25T18:44:32.099Z,5.33
2019-03-25T18:47:03.393Z,4.87
2019-03-25T18:49:31.668Z,5.37
2019-03-25T18:51:59.942Z,7.57
2019-03-25T18:54:28.235Z,5.43
2019-03-25T18:56:56.550Z,5.37
2019-03-25T18:59:24.871Z,5.43
2019-03-25T19:01:54.720Z,4.57
2019-03-25T19:04:23.272Z,4.87
2019-03-25T19:06:51.627Z,4.70
2019-03-25T19:09:19.898Z,4.00
2019-03-25T19:11:48.170Z,3.60
2019-03-25T19:14:16.442Z,3.90
2019-03-25T19:16:44.703Z,3.00
2019-03-25T19:19:13.006Z,3.07
2019-03-25T19:21:41.306Z,2.97
2019-03-25T19:24:09.593Z,3.17
2019-03-25T19:26:37.862Z,2.30
2019-03-25T19:29:06.134Z,2.60
2019-03-25T19:31:34.422Z,2.50
2019-03-25T19:34:02.694Z,2.83
2019-03-25T19:36:30.967Z,2.40
2019-03-25T19:38:59.388Z,2.40
2019-03-25T19:41:32.488Z,3.33
2019-03-25T19:43:58.864Z,2.70
2019-03-25T19:46:27.134Z,3.00
2019-03-25T19:48:55.425Z,2.80
2019-03-25T19:51:23.693Z,2.70
2019-03-25T19:53:51.944Z,3.30
2019-03-25T19:56:20.240Z,2.93
2019-03-25T19:58:48.505Z,3.40
2019-03-25T20:01:16.805Z,3.10
2019-03-25T20:03:45.062Z,2.90
2019-03-25T20:06:25.813Z,3.13
2019-03-25T20:08:45.680Z,3.03
2019-03-25T20:11:13.957Z,3.27
2019-03-25T20:13:42.219Z,2.80
2019-03-25T20:16:10.519Z,3.17
2019-03-25T20:18:38.826Z,2.77
2019-03-25T20:21:07.254Z,2.90
2019-03-25T20:23:35.600Z,3.30
2019-03-25T20:26:03.875Z,3.53
2019-03-25T20:28:32.127Z,2.80
2019-03-25T20:31:00.401Z,3.00
2019-03-25T20:33:28.780Z,2.83
2019-03-25T20:35:57.106Z,2.57
2019-03-25T20:38:25.361Z,2.97
2019-03-25T20:40:53.697Z,3.00
2019-03-25T20:43:22.146Z,2.90
2019-03-25T20:45:50.475Z,3.30
2019-03-25T20:48:18.739Z,3.33
2019-03-25T20:50:47.081Z,3.30
2019-03-25T20:53:15.476Z,3.53
2019-03-25T20:55:43.780Z,3.20
2019-03-25T20:58:12.063Z,3.30
2019-03-25T21:00:51.380Z,2.83
2019-03-25T21:03:20.134Z,3.13
2019-03-25T21:05:48.455Z,2.90
2019-03-25T21:08:16.708Z,3.23
2019-03-25T21:10:45.340Z,3.97
2019-03-25T21:13:13.613Z,3.60
2019-03-25T21:15:41.933Z,3.67
2019-03-25T21:18:10.249Z,3.47
2019-03-25T21:20:41.357Z,3.77
2019-03-25T21:23:09.734Z,3.73
2019-03-25T21:25:37.964Z,4.50
2019-03-25T21:28:06.246Z,4.80
2019-03-25T21:30:47.076Z,5.73
2019-03-25T21:33:04.529Z,5.00
2019-03-25T21:35:32.786Z,6.57
2019-03-25T21:38:01.263Z,6.60
2019-03-25T21:40:29.655Z,4.40
2019-03-25T21:42:57.872Z,4.30
2019-03-25T21:45:26.175Z,5.27
2019-03-25T21:47:54.425Z,4.53
2019-03-25T21:50:22.692Z,4.63
2019-03-25T21:52:50.966Z,5.83
2019-03-25T21:55:19.288Z,5.63
2019-03-25T21:57:47.661Z,5.20
2019-03-25T22:00:16.053Z,5.53
2019-03-25T22:02:44.334Z,5.30
2019-03-25T22:05:12.619Z,5.40
2019-03-25T22:07:40.908Z,5.33
2019-03-25T22:10:09.278Z,6.13
2019-03-25T22:12:37.555Z,34.37
2019-03-25T22:15:09.181Z,5.83
2019-03-25T22:17:38.315Z,4.90
2019-03-25T22:20:10.930Z,5.10
2019-03-25T22:22:40.828Z,4.67
2019-03-25T22:25:09.279Z,4.97
2019-03-25T22:27:37.651Z,5.27
2019-03-25T22:30:07.359Z,5.30
2019-03-25T22:32:35.643Z,5.30
2019-03-25T22:35:05.954Z,5.00
2019-03-25T22:37:34.229Z,4.93
2019-03-25T22:40:02.586Z,4.63
2019-03-25T22:42:31.105Z,5.20
2019-03-25T22:44:59.404Z,5.40
2019-03-25T22:47:27.724Z,5.73
2019-03-25T22:49:55.970Z,5.60
2019-03-25T22:52:24.898Z,6.40
2019-03-25T22:54:53.199Z,5.97
2019-03-25T22:57:21.501Z,6.80
2019-03-25T22:59:49.791Z,6.60
2019-03-25T23:02:18.094Z,6.20
2019-03-25T23:04:46.517Z,6.03
2019-03-25T23:07:14.796Z,5.47
2019-03-25T23:09:43.070Z,6.10
2019-03-25T23:12:11.345Z,5.73
2019-03-25T23:14:39.843Z,5.13
2019-03-25T23:17:08.095Z,6.13
2019-03-25T23:19:38.612Z,6.20
2019-03-25T23:22:06.664Z,6.30
2019-03-25T23:24:35.372Z,5.40
2019-03-25T23:27:04.060Z,5.60
2019-03-25T23:29:32.438Z,5.30
2019-03-25T23:32:00.950Z,6.13
2019-03-25T23:34:29.362Z,5.30
2019-03-25T23:36:57.945Z,5.43
2019-03-25T23:39:26.238Z,5.73
2019-03-25T23:41:54.542Z,5.67
2019-03-25T23:44:22.984Z,5.27
2019-03-25T23:46:51.303Z,5.87
2019-03-25T23:49:20.443Z,5.10
2019-03-25T23:51:48.714Z,5.60
2019-03-25T23:54:16.976Z,6.60
2019-03-25T23:56:45.386Z,5.40
2019-03-25T23:59:13.658Z,5.10
